Time;durP1;ratioP1;P1;durP2;ratioP2;P2;SDS_P1;SDS_P2;PMS_P1;PMS_P2;Temp;Humidity;BMP_temperature;BMP_pressure;BME280_temperature;BME280_humidity;BME280_pressure;Samples;Min_cycle;Max_cycle;Signal;HPM_P1;HPM_P2
2022/05/25 00:04:05;;;;;;;3.25;2.70;;;16.70;82.90;;;;;;10539844;28;20127;-56
2022/05/25 00:09:06;;;;;;;3.83;2.60;;;16.70;82.90;;;;;;10539527;28;20036;-57
2022/05/25 00:14:07;;;;;;;3.00;2.40;;;16.60;82.90;;;;;;10539353;28;20106;-55
2022/05/25 00:24:27;;;;;;;3.85;2.78;;;16.60;82.90;;;;;;10538908;28;20032;-56
2022/05/25 00:29:28;;;;;;;2.50;2.30;;;16.50;82.90;;;;;;10538615;28;20107;-56
2022/05/25 00:34:28;;;;;;;3.72;2.10;;;16.50;82.90;;;;;;10536003;28;20381;-53
2022/05/25 00:39:29;;;;;;;2.38;1.83;;;16.50;82.90;;;;;;10538321;28;20060;-54
2022/05/25 00:44:30;;;;;;;3.53;1.98;;;16.50;82.90;;;;;;10538199;28;20025;-54
2022/05/25 00:49:33;;;;;;;3.30;2.20;;;16.40;82.90;;;;;;10538006;28;20032;-59
2022/05/25 00:54:48;;;;;;;3.50;2.10;;;16.40;83.00;;;;;;10537528;28;20105;-56
2022/05/25 01:00:06;;;;;;;2.63;2.10;;;16.40;83.00;;;;;;10537408;28;20094;-59
2022/05/25 01:05:08;;;;;;;4.18;2.10;;;16.30;83.00;;;;;;10537447;28;20028;-58
2022/05/25 01:10:20;;;;;;;2.47;2.15;;;16.40;83.00;;;;;;10536939;28;20133;-56
2022/05/25 01:16:09;;;;;;;2.05;1.80;;;16.30;83.00;;;;;;10536935;28;20032;-56
2022/05/25 01:21:28;;;;;;;2.65;1.98;;;16.30;82.90;;;;;;10516734;28;20081;-55
2022/05/25 01:27:06;;;;;;;5.10;2.40;;;16.30;83.00;;;;;;10536327;28;20028;-55
2022/05/25 01:32:20;;;;;;;2.58;2.20;;;16.20;82.90;;;;;;10536302;28;20498;-62
2022/05/25 01:37:27;;;;;;;2.88;2.47;;;16.20;83.00;;;;;;10536260;28;20449;-56
2022/05/25 01:42:33;;;;;;;4.85;2.72;;;16.20;83.00;;;;;;10536082;28;20036;-56
2022/05/25 01:47:37;;;;;;;2.40;2.20;;;16.20;83.00;;;;;;10536061;28;20089;-56
2022/05/25 01:52:45;;;;;;;3.35;2.50;;;16.10;82.90;;;;;;10535739;28;20024;-55
2022/05/25 01:57:50;;;;;;;3.03;2.28;;;16.10;82.90;;;;;;10536057;28;20088;-55
2022/05/25 02:08:28;;;;;;;3.33;2.80;;;16.10;83.00;;;;;;10535790;28;20035;-63
2022/05/25 02:13:34;;;;;;;;;;;16.10;82.90;;;;;;10535801;28;20427;-62
2022/05/25 02:18:59;;;;;;;3.78;2.38;;;16.00;82.80;;;;;;10535355;28;19912;-57
2022/05/25 02:24:28;;;;;;;4.90;2.72;;;16.00;82.80;;;;;;10539125;28;20028;-55
2022/05/25 02:29:48;;;;;;;4.20;3.13;;;16.00;82.90;;;;;;10543716;28;20040;-55
2022/05/25 02:34:52;;;;;;;3.60;2.80;;;15.90;82.80;;;;;;10543034;28;20063;-72
2022/05/25 02:39:54;;;;;;;3.63;2.67;;;15.90;82.90;;;;;;10542930;28;20048;-60
2022/05/25 02:44:54;;;;;;;3.28;2.88;;;15.90;82.90;;;;;;10542743;28;20032;-62
2022/05/25 02:49:55;;;;;;;3.75;3.10;;;15.90;82.90;;;;;;10542615;28;20040;-54
2022/05/25 02:54:56;;;;;;;4.40;3.13;;;15.90;83.00;;;;;;10542459;28;20032;-55
2022/05/25 02:59:57;;;;;;;3.70;2.90;;;15.80;82.90;;;;;;10542491;28;20043;-61
2022/05/25 03:04:57;;;;;;;4.43;3.25;;;15.80;82.90;;;;;;10542026;28;20056;-72
2022/05/25 03:09:58;;;;;;;4.70;3.50;;;15.80;82.90;;;;;;10541948;28;20047;-62
2022/05/25 03:14:59;;;;;;;5.07;3.30;;;15.80;83.00;;;;;;10541835;28;20077;-58
2022/05/25 03:19:59;;;;;;;5.65;3.72;;;15.70;82.90;;;;;;10541528;28;20044;-56
2022/05/25 03:25:00;;;;;;;4.00;3.50;;;15.70;82.90;;;;;;10541160;28;20085;-74
2022/05/25 03:30:01;;;;;;;5.65;3.97;;;15.70;83.00;;;;;;10541106;28;20048;-56
2022/05/25 03:35:02;;;;;;;4.53;3.25;;;15.70;83.00;;;;;;10540354;28;20046;-63
2022/05/25 03:40:09;;;;;;;5.30;3.85;;;15.70;83.00;;;;;;10540805;28;20451;-71
2022/05/25 03:45:12;;;;;;;5.38;3.95;;;15.60;83.00;;;;;;10540494;28;20028;-68
2022/05/25 03:50:13;;;;;;;5.82;4.00;;;15.70;83.00;;;;;;10522237;28;20043;-66
2022/05/25 03:55:14;;;;;;;5.25;3.88;;;15.60;83.00;;;;;;10540196;28;20489;-68
2022/05/25 04:00:14;;;;;;;6.70;3.95;;;15.60;83.00;;;;;;10539913;28;20123;-56
2022/05/25 04:05:15;;;;;;;6.72;4.43;;;15.60;83.00;;;;;;10539761;28;20032;-54
2022/05/25 04:10:19;;;;;;;4.93;3.92;;;15.60;83.00;;;;;;10539271;28;20111;-55
2022/05/25 04:15:25;;;;;;;5.85;4.18;;;15.60;83.00;;;;;;10539391;28;20055;-58
2022/05/25 04:20:28;;;;;;;5.88;4.00;;;15.60;83.00;;;;;;10539145;28;20066;-54
2022/05/25 04:25:29;;;;;;;5.65;4.28;;;15.60;83.60;;;;;;10538831;28;20381;-56
2022/05/25 04:30:30;;;;;;;4.85;3.75;;;15.50;82.90;;;;;;10538330;28;20101;-61
2022/05/25 04:35:30;;;;;;;5.50;3.78;;;15.50;83.00;;;;;;10538714;28;20048;-68
2022/05/25 04:40:35;;;;;;;5.10;3.90;;;15.50;82.90;;;;;;10538226;28;20055;-55
2022/05/25 04:45:41;;;;;;;5.63;4.03;;;15.50;83.50;;;;;;10537358;28;20472;-57
2022/05/25 04:50:44;;;;;;;5.75;4.35;;;15.50;83.00;;;;;;10538039;28;20044;-56
2022/05/25 05:01:06;;;;;;;6.15;4.53;;;15.50;83.00;;;;;;10537649;28;20040;-57
2022/05/25 05:06:09;;;;;;;9.20;4.63;;;15.50;83.00;;;;;;10537856;28;20039;-68
2022/05/25 05:11:13;;;;;;;5.22;3.95;;;15.50;83.00;;;;;;10537237;28;20558;-60
2022/05/25 05:16:15;;;;;;;6.18;4.10;;;15.50;83.00;;;;;;10537168;28;20111;-58
2022/05/25 05:21:16;;;;;;;7.18;3.90;;;15.50;83.00;;;;;;10536498;28;20093;-59
2022/05/25 05:26:17;;;;;;;6.47;4.38;;;15.50;83.10;;;;;;10536479;28;20085;-56
2022/05/25 05:31:17;;;;;;;6.50;4.60;;;15.50;83.20;;;;;;10534039;28;20101;-57
2022/05/25 05:36:25;;;;;;;6.90;4.55;;;15.50;83.20;;;;;;10536388;28;20075;-65
2022/05/25 05:41:31;;;;;;;7.30;4.70;;;15.50;83.30;;;;;;10536014;28;20105;-56
2022/05/25 05:46:34;;;;;;;6.65;4.13;;;15.60;83.40;;;;;;10536495;28;20115;-55
2022/05/25 05:51:37;;;;;;;7.95;4.65;;;15.50;83.40;;;;;;10536205;28;20489;-56
2022/05/25 05:56:38;;;;;;;8.23;4.80;;;15.60;83.50;;;;;;10535768;28;20123;-56
2022/05/25 06:01:38;;;;;;;7.15;4.55;;;15.50;83.40;;;;;;10535593;28;20139;-74
2022/05/25 06:06:39;;;;;;;6.65;4.30;;;15.60;83.60;;;;;;10535543;28;20158;-62
2022/05/25 06:11:41;;;;;;;9.02;4.47;;;15.60;83.60;;;;;;10535294;28;20472;-68
2022/05/25 06:22:05;;;;;;;7.97;4.75;;;15.60;83.70;;;;;;10534627;28;20396;-63
2022/05/25 06:27:08;;;;;;;6.45;4.28;;;15.60;83.80;;;;;;10534293;28;20043;-55
2022/05/25 06:32:11;;;;;;;7.20;4.60;;;15.60;84.10;;;;;;10534179;28;20067;-52
2022/05/25 06:37:24;;;;;;;6.95;4.85;;;15.70;84.20;;;;;;10534284;28;20042;-63
2022/05/25 06:42:25;;;;;;;7.90;4.80;;;15.70;84.30;;;;;;10533562;28;20064;-59
2022/05/25 06:47:27;;;;;;;6.75;4.35;;;15.80;84.50;;;;;;10533534;28;20142;-56
2022/05/25 06:52:28;;;;;;;7.32;4.43;;;15.80;84.70;;;;;;10533817;28;20048;-56
2022/05/25 06:57:29;;;;;;;7.47;3.85;;;15.80;84.70;;;;;;10534019;28;20474;-57
2022/05/25 07:02:30;;;;;;;6.85;4.88;;;15.80;84.70;;;;;;10533782;28;20028;-63
2022/05/25 07:07:31;;;;;;;13.80;4.28;;;15.80;84.70;;;;;;10533604;28;20047;-56
2022/05/25 07:12:32;;;;;;;5.93;4.10;;;15.90;84.80;;;;;;10541274;28;20108;-57
2022/05/25 07:17:34;;;;;;;6.50;3.88;;;15.90;84.80;;;;;;10540507;28;20047;-57
2022/05/25 07:22:38;;;;;;;8.68;4.53;;;15.90;84.90;;;;;;10540496;28;20036;-58
2022/05/25 07:27:39;;;;;;;6.88;3.92;;;15.90;84.90;;;;;;10522298;28;20032;-56
2022/05/25 07:32:41;;;;;;;6.35;3.65;;;15.90;84.90;;;;;;10537667;28;20056;-56
2022/05/25 07:37:47;;;;;;;5.13;3.83;;;16.00;85.00;;;;;;10539887;28;20055;-56
2022/05/25 07:42:50;;;;;;;6.60;3.85;;;16.00;85.00;;;;;;10540015;28;20028;-63
2022/05/25 07:47:53;;;;;;;6.47;3.40;;;16.00;84.90;;;;;;10540088;28;20437;-58
2022/05/25 07:52:57;;;;;;;5.03;3.38;;;16.10;84.90;;;;;;10539533;28;20054;-61
2022/05/25 07:57:57;;;;;;;5.60;3.42;;;16.10;85.00;;;;;;10539581;28;20040;-64
2022/05/25 08:08:22;;;;;;;19.08;3.80;;;16.20;85.30;;;;;;10538894;28;20040;-62
2022/05/25 08:13:24;;;;;;;7.25;3.10;;;16.20;85.40;;;;;;10538676;28;20036;-62
2022/05/25 08:18:25;;;;;;;4.90;3.22;;;16.30;85.40;;;;;;10538980;28;20044;-64
2022/05/25 08:23:26;;;;;;;5.32;3.58;;;16.30;85.30;;;;;;10537500;28;20040;-57
2022/05/25 08:28:26;;;;;;;5.85;3.30;;;16.40;85.20;;;;;;10538086;28;20054;-59
2022/05/25 08:33:27;;;;;;;6.00;3.05;;;16.40;85.20;;;;;;10535816;28;20437;-60
2022/05/25 08:38:28;;;;;;;4.28;2.90;;;16.40;85.00;;;;;;10535978;28;20147;-62
2022/05/25 08:43:40;;;;;;;5.97;2.85;;;16.50;85.00;;;;;;10536023;28;20028;-57
2022/05/25 08:48:43;;;;;;;4.18;2.75;;;16.50;85.00;;;;;;10536091;28;20035;-64
2022/05/25 08:53:44;;;;;;;4.60;3.00;;;16.60;84.80;;;;;;10535930;28;20409;-73
2022/05/25 08:58:51;;;;;;;5.45;2.40;;;16.60;84.90;;;;;;10535375;28;20056;-58
2022/05/25 09:04:04;;;;;;;5.85;3.13;;;16.60;84.90;;;;;;10535789;28;20046;-66
2022/05/25 09:09:13;;;;;;;4.03;2.58;;;16.70;84.30;;;;;;10535950;28;20032;-66
2022/05/25 09:14:35;;;;;;;3.13;2.65;;;16.80;83.70;;;;;;10536108;28;20107;-68
2022/05/25 09:19:39;;;;;;;6.70;2.58;;;17.10;82.90;;;;;;10535694;28;20523;-67
2022/05/25 09:24:40;;;;;;;5.80;3.10;;;17.10;82.80;;;;;;10535656;28;20055;-69
2022/05/25 09:29:41;;;;;;;4.65;2.85;;;17.10;82.60;;;;;;10535505;28;20047;-66
2022/05/25 09:34:58;;;;;;;5.75;2.97;;;17.00;82.50;;;;;;10534755;28;20063;-68
2022/05/25 09:40:19;;;;;;;5.55;2.72;;;17.10;82.30;;;;;;10535124;28;20051;-68
2022/05/25 09:45:20;;;;;;;4.95;2.90;;;17.30;82.40;;;;;;10535135;28;20044;-59
2022/05/25 09:50:28;;;;;;;3.88;2.83;;;17.30;81.70;;;;;;10535074;28;20089;-63
2022/05/25 09:55:33;;;;;;;3.92;3.38;;;17.30;81.50;;;;;;10534382;28;20058;-71
2022/05/25 10:00:39;;;;;;;4.47;3.38;;;17.40;81.00;;;;;;10533931;28;20048;-68
2022/05/25 10:05:55;;;;;;;4.82;3.00;;;17.40;80.50;;;;;;10534479;28;20544;-67
2022/05/25 10:11:00;;;;;;;5.20;4.28;;;17.40;80.30;;;;;;10534648;28;20024;-66
2022/05/25 10:16:01;;;;;;;5.80;3.60;;;17.40;80.50;;;;;;10534323;28;20546;-58
2022/05/25 10:21:04;;;;;;;10.10;4.07;;;17.50;80.60;;;;;;10516275;28;20131;-67
2022/05/25 10:26:17;;;;;;;7.20;4.82;;;17.60;80.20;;;;;;10534464;28;20112;-74
2022/05/25 10:37:06;;;;;;;6.55;4.28;;;18.10;79.30;;;;;;10534070;28;20120;-66
2022/05/25 10:42:37;;;;;;;6.28;4.75;;;18.00;79.30;;;;;;10533964;28;20051;-65
2022/05/25 10:47:54;;;;;;;6.10;4.47;;;18.00;79.10;;;;;;10541845;28;20036;-71
2022/05/25 10:53:18;;;;;;;6.55;3.85;;;18.10;78.80;;;;;;10541585;28;20060;-62
2022/05/25 10:58:31;;;;;;;6.60;3.95;;;18.20;78.20;;;;;;10541358;28;20058;-69
2022/05/25 11:03:41;;;;;;;6.22;3.72;;;18.10;77.60;;;;;;10541355;28;20047;-67
2022/05/25 11:09:15;;;;;;;5.70;3.92;;;18.00;77.10;;;;;;10541085;28;20036;-60
2022/05/25 11:14:37;;;;;;;6.57;4.03;;;17.80;77.40;;;;;;10540694;28;20040;-60
2022/05/25 11:19:53;;;;;;;9.35;4.40;;;17.70;78.70;;;;;;10540054;28;20131;-63
2022/05/25 11:24:56;;;;;;;7.93;4.28;;;17.70;79.30;;;;;;10540418;28;20088;-60
2022/05/25 11:30:44;;;;;;;5.30;3.83;;;17.60;79.10;;;;;;10539981;28;20040;-64
2022/05/25 11:35:48;;;;;;;;;;;17.70;79.50;;;;;;10538273;28;20048;-58
2022/05/25 11:40:57;;;;;;;9.43;3.83;;;17.20;79.50;;;;;;10539821;28;20010;-58
2022/05/25 11:46:19;;;;;;;4.28;3.50;;;17.30;80.40;;;;;;10539818;28;20106;-58
2022/05/25 11:51:22;;;;;;;7.75;3.40;;;17.40;80.30;;;;;;10539860;28;20036;-57
2022/05/25 11:56:58;;;;;;;6.95;3.38;;;17.50;80.40;;;;;;10539137;28;20040;-74
2022/05/25 12:02:11;;;;;;;5.00;3.47;;;17.60;80.20;;;;;;10539034;28;20040;-68
2022/05/25 12:07:20;;;;;;;4.68;2.60;;;17.90;79.60;;;;;;10538672;28;20043;-59
2022/05/25 12:12:30;;;;;;;6.05;2.17;;;18.10;79.00;;;;;;10520623;28;20028;-70
2022/05/25 12:18:02;;;;;;;4.60;1.75;;;18.20;78.20;;;;;;10538593;28;20472;-69
2022/05/25 12:23:15;;;;;;;3.28;1.55;;;18.40;77.50;;;;;;10539699;28;20427;-71
2022/05/25 12:28:16;;;;;;;7.50;1.20;;;18.60;77.40;;;;;;10539337;28;20036;-68
2022/05/25 12:33:25;;;;;;;4.25;0.90;;;18.40;77.00;;;;;;10538886;28;20052;-62
2022/05/25 12:38:31;;;;;;;2.75;0.68;;;18.40;75.70;;;;;;10538889;28;20097;-69
2022/05/25 12:43:41;;;;;;;2.75;0.82;;;18.50;75.40;;;;;;10538653;28;20028;-70
2022/05/25 12:48:56;;;;;;;2.78;0.80;;;18.70;73.20;;;;;;10538872;28;20111;-70
2022/05/25 12:54:04;;;;;;;2.53;0.55;;;18.70;74.10;;;;;;10538361;28;20039;-61
2022/05/25 12:59:12;;;;;;;5.05;0.75;;;18.80;74.30;;;;;;10537941;28;20044;-68
2022/05/25 13:04:42;;;;;;;2.55;0.73;;;19.00;72.80;;;;;;10537983;28;20036;-67
2022/05/25 13:09:43;;;;;;;3.72;0.95;;;19.10;72.10;;;;;;10536942;28;20035;-61
2022/05/25 13:14:44;;;;;;;2.15;0.50;;;19.20;72.70;;;;;;10537611;28;20028;-69
2022/05/25 13:19:47;;;;;;;5.95;0.70;;;19.20;72.50;;;;;;10537056;28;20408;-66
2022/05/25 13:25:03;;;;;;;5.43;0.85;;;19.20;72.20;;;;;;10536959;28;20033;-68
2022/05/25 13:30:27;;;;;;;2.80;0.80;;;19.30;70.30;;;;;;10536998;28;20052;-69
2022/05/25 13:35:45;;;;;;;3.33;0.60;;;19.10;70.20;;;;;;10536402;28;20047;-67
2022/05/25 13:40:51;;;;;;;2.25;0.52;;;19.10;70.40;;;;;;10536571;28;20059;-59
2022/05/25 13:45:52;;;;;;;2.95;0.73;;;19.00;71.60;;;;;;10536675;28;20493;-69
2022/05/25 13:50:56;;;;;;;1.10;0.55;;;19.00;72.10;;;;;;10536332;28;20040;-77
2022/05/25 13:56:11;;;;;;;2.47;0.65;;;18.80;71.40;;;;;;10518172;28;20089;-71
2022/05/25 14:01:18;;;;;;;2.80;0.68;;;18.60;70.30;;;;;;10536269;28;20040;-67
2022/05/25 14:06:19;;;;;;;1.43;0.53;;;18.60;71.40;;;;;;10536334;28;20024;-79
2022/05/25 14:11:23;;;;;;;3.55;0.45;;;18.50;71.40;;;;;;10536188;28;20051;-57
2022/05/25 14:16:27;;;;;;;2.80;0.60;;;18.50;71.30;;;;;;10535823;28;20028;-69
2022/05/25 14:21:40;;;;;;;4.35;0.80;;;18.60;71.10;;;;;;10544008;28;20120;-71
2022/05/25 14:26:49;;;;;;;2.58;0.82;;;18.70;71.00;;;;;;10544265;28;20131;-68
2022/05/25 14:31:56;;;;;;;2.25;0.80;;;18.70;70.70;;;;;;10543898;28;20086;-62
2022/05/25 14:36:58;;;;;;;4.32;0.80;;;18.60;71.00;;;;;;10543700;28;20032;-64
2022/05/25 14:42:14;;;;;;;2.13;0.60;;;18.60;71.20;;;;;;10543614;28;20521;-68
2022/05/25 14:47:30;;;;;;;3.92;0.90;;;18.50;70.50;;;;;;10543386;28;20036;-66
2022/05/25 14:52:31;;;;;;;3.20;0.90;;;18.40;71.50;;;;;;10543288;28;20088;-62
2022/05/25 14:57:33;;;;;;;2.47;1.10;;;18.40;71.80;;;;;;10543127;28;20052;-56
2022/05/25 15:02:39;;;;;;;5.38;1.15;;;18.40;72.50;;;;;;10542734;28;20047;-68
2022/05/25 15:07:54;;;;;;;7.65;1.40;;;18.40;72.10;;;;;;10542478;28;20030;-64
2022/05/25 15:12:55;;;;;;;2.50;1.20;;;18.40;72.00;;;;;;10542550;28;20035;-81
2022/05/25 15:18:36;;;;;;;4.88;1.65;;;18.30;72.70;;;;;;10542006;28;20406;-65
2022/05/25 15:23:44;;;;;;;3.78;1.35;;;18.30;72.80;;;;;;10542217;28;20471;-65
2022/05/25 15:28:46;;;;;;;4.68;1.88;;;18.10;73.50;;;;;;10541084;28;20107;-66
2022/05/25 15:33:47;;;;;;;3.17;1.90;;;18.10;74.20;;;;;;10541171;28;20056;-58
2022/05/25 15:38:53;;;;;;;4.45;1.83;;;18.00;75.00;;;;;;10541027;28;20126;-64
2022/05/25 15:43:54;;;;;;;8.10;1.92;;;17.90;75.90;;;;;;10540848;28;20032;-68
2022/05/25 15:48:56;;;;;;;2.63;1.48;;;17.90;76.10;;;;;;10540901;28;20028;-64
2022/05/25 15:53:59;;;;;;;6.15;1.67;;;18.00;76.30;;;;;;10540630;28;20032;-59
2022/05/25 15:58:59;;;;;;;4.20;1.65;;;18.00;76.40;;;;;;10540426;28;20498;-65
2022/05/25 16:04:04;;;;;;;3.83;1.20;;;18.10;76.50;;;;;;10540450;28;20055;-64
2022/05/25 16:09:14;;;;;;;4.22;1.25;;;18.10;76.50;;;;;;10540087;28;20024;-61
2022/05/25 16:14:15;;;;;;;4.72;1.20;;;18.10;76.50;;;;;;10539934;28;20036;-61
2022/05/25 16:19:17;;;;;;;2.60;1.05;;;18.10;76.40;;;;;;10539520;28;20071;-64
2022/05/25 16:24:19;;;;;;;2.03;1.02;;;18.10;76.40;;;;;;10539201;28;20039;-58
2022/05/25 16:29:20;;;;;;;4.60;1.00;;;18.10;76.40;;;;;;10538677;28;20576;-58
2022/05/25 16:34:21;;;;;;;3.28;1.00;;;18.10;76.30;;;;;;10538615;28;20134;-58
2022/05/25 16:39:22;;;;;;;4.28;1.38;;;18.10;76.40;;;;;;10538554;28;20067;-59
2022/05/25 16:44:23;;;;;;;4.93;1.50;;;18.00;76.40;;;;;;10537315;28;20064;-60
2022/05/25 16:49:23;;;;;;;5.65;0.90;;;18.00;76.50;;;;;;10537910;28;20032;-61
2022/05/25 16:54:26;;;;;;;2.38;1.42;;;18.00;76.60;;;;;;10538018;28;20491;-58
2022/05/25 16:59:29;;;;;;;4.88;1.10;;;18.00;76.60;;;;;;10537564;28;20039;-60
2022/05/25 17:04:30;;;;;;;2.92;0.90;;;18.00;76.60;;;;;;10537765;28;20539;-63
2022/05/25 17:09:31;;;;;;;3.72;0.90;;;18.00;76.80;;;;;;10537364;28;20119;-59
2022/05/25 17:14:32;;;;;;;3.50;1.90;;;18.00;76.90;;;;;;10537311;28;20381;-62
2022/05/25 17:24:52;;;;;;;3.10;0.70;;;17.90;76.90;;;;;;10537110;28;20121;-62
2022/05/25 17:29:52;;;;;;;3.78;1.20;;;17.90;77.00;;;;;;10536949;28;20488;-62
2022/05/25 17:34:54;;;;;;;2.00;0.90;;;17.90;77.00;;;;;;10534159;28;20134;-58
2022/05/25 17:45:16;;;;;;;4.10;1.30;;;17.80;77.20;;;;;;10536450;28;20032;-63
2022/05/25 17:50:16;;;;;;;3.42;0.90;;;17.80;77.50;;;;;;10536334;28;20036;-64
2022/05/25 17:55:17;;;;;;;2.83;0.90;;;17.80;77.70;;;;;;10535822;28;20028;-64
2022/05/25 18:00:18;;;;;;;1.10;0.60;;;17.70;77.80;;;;;;10535479;28;20040;-60
2022/05/25 18:05:19;;;;;;;2.33;0.80;;;17.70;78.10;;;;;;10535561;28;20050;-62
2022/05/25 18:10:22;;;;;;;3.20;0.70;;;17.70;78.20;;;;;;10535571;28;20047;-62
2022/05/25 18:15:28;;;;;;;1.30;0.85;;;17.70;78.40;;;;;;10535850;28;20115;-59
2022/05/25 18:20:30;;;;;;;4.03;0.88;;;17.60;78.60;;;;;;10535382;28;20060;-63
2022/05/25 18:25:33;;;;;;;2.78;0.80;;;17.60;78.70;;;;;;10535629;28;20508;-58
2022/05/25 18:30:34;;;;;;;2.25;0.90;;;17.60;79.00;;;;;;10535573;28;20484;-58
2022/05/25 18:35:35;;;;;;;1.85;0.90;;;17.60;79.20;;;;;;10535132;28;20075;-59
2022/05/25 18:40:36;;;;;;;1.38;0.70;;;17.50;79.40;;;;;;10534927;28;20143;-57
2022/05/25 18:45:37;;;;;;;1.27;0.80;;;17.50;79.60;;;;;;10534938;28;20123;-61
2022/05/25 18:50:38;;;;;;;2.38;0.80;;;17.50;79.70;;;;;;10534597;28;20032;-62
2022/05/25 18:55:39;;;;;;;1.95;0.90;;;17.40;79.90;;;;;;10534670;28;20036;-58
2022/05/25 19:00:40;;;;;;;2.80;0.98;;;17.40;80.10;;;;;;10534430;28;20036;-62
2022/05/25 19:05:41;;;;;;;1.92;0.80;;;17.40;80.30;;;;;;10537835;28;20050;-57
2022/05/25 19:10:44;;;;;;;1.58;0.70;;;17.40;80.50;;;;;;10541971;28;20122;-62
2022/05/25 19:15:46;;;;;;;2.72;0.80;;;17.30;80.60;;;;;;10542228;28;20063;-57
2022/05/25 19:20:47;;;;;;;1.75;0.80;;;17.30;80.90;;;;;;10541833;28;20493;-61
2022/05/25 19:26:10;;;;;;;2.78;0.80;;;17.30;81.10;;;;;;10541665;28;20067;-57
2022/05/25 19:31:11;;;;;;;1.38;0.63;;;17.30;81.30;;;;;;10541112;28;20074;-59
2022/05/25 19:36:16;;;;;;;2.05;0.68;;;17.20;81.30;;;;;;10541082;28;20070;-61
2022/05/25 19:41:17;;;;;;;2.05;1.13;;;17.20;81.60;;;;;;10540826;28;20047;-60
2022/05/25 19:46:18;;;;;;;5.57;0.90;;;17.20;81.80;;;;;;10541081;28;20024;-63
2022/05/25 19:51:18;;;;;;;1.05;0.82;;;17.20;82.00;;;;;;10540873;28;20400;-60
2022/05/25 19:56:19;;;;;;;2.75;1.10;;;17.10;82.10;;;;;;10541199;28;20131;-60
2022/05/25 20:01:22;;;;;;;1.55;0.68;;;17.10;82.20;;;;;;10540437;28;20048;-62
2022/05/25 20:06:23;;;;;;;4.22;1.00;;;17.10;82.40;;;;;;10540120;28;20033;-61
2022/05/25 20:11:24;;;;;;;1.73;0.90;;;17.10;82.50;;;;;;10539708;28;20050;-62
2022/05/25 20:16:25;;;;;;;3.72;0.80;;;17.10;82.70;;;;;;10539554;28;20024;-63
2022/05/25 20:21:26;;;;;;;1.58;0.90;;;17.00;82.70;;;;;;10539409;28;20511;-58
2022/05/25 20:26:26;;;;;;;1.50;0.68;;;17.00;82.80;;;;;;10539472;28;20055;-57
2022/05/25 20:31:27;;;;;;;3.53;1.10;;;17.00;82.90;;;;;;10538557;28;20790;-57
2022/05/25 20:36:28;;;;;;;3.28;0.80;;;17.00;83.10;;;;;;10538706;28;20373;-57
2022/05/25 20:41:28;;;;;;;3.08;0.98;;;16.90;83.10;;;;;;10538264;28;20455;-62
2022/05/25 20:46:29;;;;;;;2.40;0.60;;;16.90;83.20;;;;;;10538250;28;20040;-59
2022/05/25 20:51:30;;;;;;;1.40;0.82;;;16.90;83.30;;;;;;10538233;28;20040;-58
2022/05/25 20:56:30;;;;;;;2.17;1.10;;;16.90;83.40;;;;;;10537774;28;20036;-61
2022/05/25 21:01:32;;;;;;;2.05;0.80;;;16.90;83.50;;;;;;10537834;28;20044;-59
2022/05/25 21:06:32;;;;;;;2.92;1.00;;;16.90;83.60;;;;;;10537688;28;20472;-55
2022/05/25 21:11:37;;;;;;;2.35;0.90;;;16.90;83.60;;;;;;10537123;28;20123;-59
2022/05/25 21:16:41;;;;;;;2.40;0.80;;;16.90;83.80;;;;;;10537319;28;20035;-58
2022/05/25 21:21:41;;;;;;;1.77;0.80;;;16.80;83.80;;;;;;10536916;28;20040;-60
2022/05/25 21:26:42;;;;;;;1.80;0.93;;;16.80;83.80;;;;;;10536785;28;20036;-60
2022/05/25 21:37:03;;;;;;;1.30;0.85;;;16.80;84.00;;;;;;10536509;28;20040;-62
2022/05/25 21:42:05;;;;;;;1.88;1.00;;;16.80;84.10;;;;;;10536507;28;20040;-61
2022/05/25 21:52:35;;;;;;;2.30;0.90;;;16.80;84.20;;;;;;10504768;28;20074;-58
2022/05/25 21:57:36;;;;;;;3.67;1.20;;;16.80;84.40;;;;;;10535983;28;20059;-58
2022/05/25 22:02:37;;;;;;;3.47;1.10;;;16.70;84.40;;;;;;10535827;28;20062;-62
2022/05/25 22:07:37;;;;;;;3.25;1.00;;;16.70;84.40;;;;;;10535906;28;20169;-62
2022/05/25 22:12:39;;;;;;;2.58;1.17;;;16.70;85.10;;;;;;10535896;28;20021;-58
2022/05/25 22:17:41;;;;;;;2.38;1.30;;;16.70;84.60;;;;;;10535641;28;20056;-62
2022/05/25 22:22:41;;;;;;;2.13;0.90;;;16.70;84.70;;;;;;10536024;28;20459;-58
2022/05/25 22:27:42;;;;;;;1.55;1.10;;;16.70;84.80;;;;;;10535654;28;20066;-61
2022/05/25 22:32:43;;;;;;;1.83;1.13;;;16.70;84.80;;;;;;10535289;28;20126;-62
2022/05/25 22:37:44;;;;;;;2.33;1.27;;;16.70;84.90;;;;;;10535396;28;20544;-58
2022/05/25 22:42:45;;;;;;;3.83;1.40;;;16.60;85.00;;;;;;10542094;28;20052;-58
2022/05/25 22:47:45;;;;;;;2.10;1.30;;;16.60;85.00;;;;;;10543437;28;20054;-58
2022/05/25 22:52:47;;;;;;;3.47;1.40;;;16.60;85.10;;;;;;10543218;28;20132;-60
2022/05/25 22:57:47;;;;;;;2.60;1.38;;;16.60;85.70;;;;;;10542997;28;20063;-59
2022/05/25 23:02:48;;;;;;;3.70;1.92;;;16.60;85.20;;;;;;10542635;28;20047;-60
2022/05/25 23:07:49;;;;;;;2.85;1.40;;;16.60;85.20;;;;;;10542510;28;20048;-59
2022/05/25 23:12:49;;;;;;;2.45;1.08;;;16.60;85.40;;;;;;10542346;28;20043;-58
2022/05/25 23:17:50;;;;;;;3.38;1.30;;;16.60;85.40;;;;;;10542229;28;20089;-59
2022/05/25 23:22:51;;;;;;;4.15;1.73;;;16.60;85.60;;;;;;10542081;28;20043;-58
2022/05/25 23:29:18;;;;;;;2.95;1.45;;;16.60;85.60;;;;;;10541727;28;20135;-63
2022/05/25 23:33:12;;;;;;;2.65;1.50;;;16.50;85.70;;;;;;10537068;28;20040;-63
2022/05/25 23:38:13;;;;;;;4.50;1.60;;;16.50;85.80;;;;;;10541307;28;20118;-61
2022/05/25 23:48:33;;;;;;;2.15;1.50;;;16.50;85.90;;;;;;10541256;28;20036;-63
2022/05/25 23:53:33;;;;;;;2.95;1.55;;;16.50;86.00;;;;;;10540204;28;20032;-61
2022/05/25 23:58:35;;;;;;;4.25;1.80;;;16.50;86.10;;;;;;10540565;28;20040;-61
